DW5259 Lakeland FL US current weather conditions

sailwx.info

Wind from 047

Air temperature 23.9° C
Dewpoint 23.4° C

Last reported at 2020-Aug-09 07:01 UTC.
Time now 2020-Aug-09 07:55 UTC

Location: N 28°04' W 082°02'.
View on Google Maps.

See reports from other nearby stations

  
Tides and Currents Weather Stations Pressure Air Temp Water Temp Dewpoint Dewpoint Depression Visibility Wind Speed Wind Dir Waves Ship Positions
date/time (UTC)wind fromknots sea level pressurealtimeterstation pressurevisibilityair tempwater tempwave heightnotes
2020-Aug-09 07:01 047 23.9
2020-Aug-09 06:47 047 24.4
2020-Aug-09 06:30 047 24.4
2020-Aug-09 06:16 047 0 gusting 1 24.4
2020-Aug-09 06:00 160 0 gusting 1 24.4
2020-Aug-09 05:45 160 24.4
2020-Aug-09 05:31 160 24.4
2020-Aug-09 05:15 159 0 gusting 1 24.4
2020-Aug-09 05:01 161 23.9
2020-Aug-09 04:47 161 24.4
2020-Aug-09 04:30 161 24.4
2020-Aug-09 04:16 161 24.4
2020-Aug-09 04:01 215 23.9
2020-Aug-09 03:46 053 0 gusting 1 23.9
2020-Aug-09 03:31 054 23.9
2020-Aug-09 03:15 054 23.9
2020-Aug-09 03:01 054 24.4
2020-Aug-09 02:45 098 1 gusting 7 25.0
2020-Aug-09 02:30 141 3 gusting 10 26.1
2020-Aug-09 02:16 075 2 gusting 6 27.2
2020-Aug-09 02:01 122 26.7
2020-Aug-09 01:46 122 27.2
2020-Aug-09 01:31 122 27.2
2020-Aug-09 01:16 113 0 gusting 2 27.2
2020-Aug-09 01:02 168 0 gusting 1 27.2
2020-Aug-09 00:46 319 0 gusting 1 27.8
2020-Aug-09 00:31 319 27.8
2020-Aug-09 00:16 316 0 gusting 2 27.8
2020-Aug-09 00:02 313 27.8
2020-Aug-08 23:46 257 0 gusting 2 27.8
2020-Aug-08 23:31 071 1 gusting 2 27.2
2020-Aug-08 23:16 212 0 gusting 6 27.8
2020-Aug-08 23:01 132 3 gusting 8 28.9
2020-Aug-08 22:46 131 1 gusting 6 29.4
2020-Aug-08 22:31 207 1 gusting 5 30.0
2020-Aug-08 22:01 317 31.7
2020-Aug-08 21:45 011 0 gusting 3 32.8
2020-Aug-08 21:31 011 1 gusting 5 33.9
2020-Aug-08 21:15 005 3 gusting 7 33.9
2020-Aug-08 21:01 262 0 gusting 6 34.4
2020-Aug-08 20:46 360 1 gusting 4 34.4
2020-Aug-08 20:30 221 1 gusting 5 34.4
2020-Aug-08 20:16 263 2 gusting 6 34.4
2020-Aug-08 20:00 319 2 gusting 5 35.0
2020-Aug-08 19:45 005 0 gusting 3 35.0
2020-Aug-08 19:31 180 1 gusting 4 33.9
2020-Aug-08 19:15 012 1 gusting 5 33.9
2020-Aug-08 19:02 041 1 gusting 4 33.9
2020-Aug-08 18:47 086 0 gusting 3 34.4
2020-Aug-08 18:31 128 0 gusting 5 33.9
2020-Aug-08 18:16 159 0 gusting 5 33.3
2020-Aug-08 18:01 171 0 gusting 4 33.3
2020-Aug-08 17:46 139 1 gusting 6 33.3
2020-Aug-08 17:31 141 0 gusting 5 33.3
2020-Aug-08 17:16 182 0 gusting 3 32.8
2020-Aug-08 17:01 302 0 gusting 5 32.8
2020-Aug-08 16:46 063 1 gusting 4 32.8
2020-Aug-08 16:31 005 0 gusting 3 32.2
2020-Aug-08 16:16 135 0 gusting 3 32.2
2020-Aug-08 16:01 028 0 gusting 2 31.7
2020-Aug-08 15:46 225 0 gusting 4 31.1
2020-Aug-08 15:31 148 0 gusting 3 31.1
2020-Aug-08 15:17 247 0 gusting 3 31.1
2020-Aug-08 15:01 355 0 gusting 3 30.6
2020-Aug-08 14:46 281 30.6
2020-Aug-08 14:31 355 1 gusting 2 30.6
2020-Aug-08 14:16 117 0 gusting 2 29.4
2020-Aug-08 14:00 021 29.4
2020-Aug-08 13:45 026 28.9
2020-Aug-08 13:31 029 0 gusting 2 28.3
2020-Aug-08 13:15 344 0 gusting 2 27.8
2020-Aug-08 13:00 101 26.7
2020-Aug-08 12:46 103 26.1
2020-Aug-08 12:30 291 25.0
2020-Aug-08 12:16 290 24.4
2020-Aug-08 12:00 290 23.9
2020-Aug-08 11:45 290 23.3
2020-Aug-08 11:30 290 23.3
2020-Aug-08 11:15 290 22.8
2020-Aug-08 11:01 290 22.8
2020-Aug-08 10:46 282 22.8
2020-Aug-08 10:30 282 22.8
2020-Aug-08 10:15 282 23.3
2020-Aug-08 10:01 282 23.3
2020-Aug-08 09:47 282 23.3
2020-Aug-08 09:30 282 23.3
2020-Aug-08 09:16 282 23.3
2020-Aug-08 09:01 282 23.3
2020-Aug-08 08:46 282 23.3
2020-Aug-08 08:30 282 23.3
2020-Aug-08 08:15 282 23.9
2020-Aug-08 08:01 128 23.9
2020-Aug-08 07:46 128 23.9
2020-Aug-08 07:31 128 23.9
2020-Aug-08 07:16 128 23.9
2020-Aug-08 07:01 128 0 gusting 1 23.9
2020-Aug-08 06:46 128 24.4
2020-Aug-08 06:31 121 24.4
2020-Aug-08 06:16 145 0 gusting 2 23.9
2020-Aug-08 06:01 179 0 gusting 1 23.9
2020-Aug-08 05:45 292 23.9
2020-Aug-08 05:30 292 23.9
2020-Aug-08 05:15 292 23.9
2020-Aug-08 05:00 292 24.4
2020-Aug-08 04:46 287 24.4
2020-Aug-08 04:30 148 24.4
2020-Aug-08 04:15 148 24.4
2020-Aug-08 04:00 146 0 gusting 2 25.0
2020-Aug-08 03:46 089 25.0
2020-Aug-08 03:31 152 0 gusting 3 25.6
2020-Aug-08 03:15 123 0 gusting 2 25.6
2020-Aug-08 03:01 118 1 gusting 5 25.6
2020-Aug-08 02:46 113 1 gusting 5 25.6
2020-Aug-08 02:31 136 0 gusting 8 25.6
2020-Aug-08 02:16 121 2 gusting 8 25.6
2020-Aug-08 02:00 129 0 gusting 2 25.6
2020-Aug-08 01:46 078 0 gusting 5 25.6
2020-Aug-08 01:30 089 0 gusting 1 25.0
2020-Aug-08 01:16 031 25.6
2020-Aug-08 01:01 044 25.6
2020-Aug-08 00:46 088 1 gusting 5 25.6
2020-Aug-08 00:31 355 25.6
2020-Aug-08 00:15 036 26.1
2020-Aug-08 00:01 035 26.1
2020-Aug-07 23:47 035 26.1
2020-Aug-07 23:31 035 26.1
2020-Aug-07 23:16 010 0 gusting 3 26.1
2020-Aug-07 23:01 005 0 gusting 2 26.1
2020-Aug-07 22:47 320 26.1
2020-Aug-07 22:31 322 26.1
2020-Aug-07 22:16 058 25.6
2020-Aug-07 22:00 058 25.6
2020-Aug-07 21:45 228 25.6
2020-Aug-07 21:31 105 25.6
2020-Aug-07 21:15 177 0 gusting 1 25.0
2020-Aug-07 21:00 178 0 gusting 1 25.0
2020-Aug-07 20:46 175 1 gusting 3 25.0
2020-Aug-07 20:30 238 0 gusting 4 24.4
2020-Aug-07 20:16 360 0 gusting 6 24.4
2020-Aug-07 20:00 329 4 gusting 15 25.0
2020-Aug-07 19:47 309 7 gusting 15 27.8
2020-Aug-07 19:31 265 5 gusting 13 30.6
2020-Aug-07 19:16 205 32.8
2020-Aug-07 19:01 168 0 gusting 2 33.3
2020-Aug-07 18:46 225 0 gusting 6 33.9
2020-Aug-07 18:31 281 0 gusting 5 34.4
2020-Aug-07 18:15 180 1 gusting 4 33.9
2020-Aug-07 18:01 175 2 gusting 5 33.9
2020-Aug-07 17:46 229 1 gusting 4 33.3
2020-Aug-07 17:32 332 1 gusting 4 33.3
2020-Aug-07 17:16 251 0 gusting 4 32.8
2020-Aug-07 17:01 298 2 gusting 6 32.8
2020-Aug-07 16:45 260 2 gusting 5 33.3
2020-Aug-07 16:31 035 0 gusting 2 32.8
2020-Aug-07 16:15 242 1 gusting 3 32.8
2020-Aug-07 16:02 140 1 gusting 4 31.7
2020-Aug-07 15:47 252 1 gusting 3 31.7
2020-Aug-07 15:31 228 1 gusting 6 31.1
2020-Aug-07 15:16 226 1 gusting 6 31.1
2020-Aug-07 15:01 014 1 gusting 5 31.1
2020-Aug-07 14:45 245 0 gusting 6 30.6
2020-Aug-07 14:30 190 30.6
2020-Aug-07 14:15 265 2 gusting 5 30.6
2020-Aug-07 14:01 201 0 gusting 3 30.0
2020-Aug-07 13:46 205 0 gusting 3 29.4
2020-Aug-07 13:30 142 28.9
2020-Aug-07 13:16 228 0 gusting 3 28.3
2020-Aug-07 13:03 209 27.8
2020-Aug-07 12:45 153 26.7
2020-Aug-07 12:30 153 26.1
2020-Aug-07 12:15 155 25.0
2020-Aug-07 12:01 154 23.9
2020-Aug-07 11:46 154 23.3
2020-Aug-07 11:30 154 23.3
2020-Aug-07 11:16 154 22.8
2020-Aug-07 11:01 154 22.8
2020-Aug-07 10:46 154 22.8
2020-Aug-07 10:31 154 22.8
2020-Aug-07 10:16 154 22.8
2020-Aug-07 10:01 154 22.8
2020-Aug-07 09:45 154 22.8
2020-Aug-07 09:31 154 22.8
2020-Aug-07 09:16 154 22.8
2020-Aug-07 09:00 154 23.3
2020-Aug-07 08:45 154 23.3
2020-Aug-07 08:30 154 23.3
2020-Aug-07 08:15 154 23.3
2020-Aug-07 08:01 154 23.3
2020-Aug-07 07:46 154 23.3
2020-Aug-07 07:32 155 23.9
2020-Aug-07 07:16 155 23.3
2020-Aug-07 07:01 155 23.9